Terminal Aerodrome Forecast
Issued by NWS

Home | Current Version | Previous Version | Text Only | Print | Product List | Glossary On
Versions: 1 2 3 4 5 6 7 8 9 10 11 12 13 14 15 16 17 18 19 20 21 22 23 24 25 26 27 28
000
FTUS45 KBOI 301319 AAB
TAFJER
TAF AMD
KJER 301319Z 3013/3112 14010KT P6SM OVC050
     FM301800 25020G30KT 4SM -SHRASN OVC025
      TEMPO 3018/3021 24035G45KT 2SM SHRASN OVC010
     FM302100 25030G40KT 4SM -SHRASN OVC009
     FM310400 24020KT P6SM -SHSN OVC020
     FM310700 25020KT P6SM OVC040=

USA.gov is the U.S. government's official web portal to all federal, state and local government web resources and services.